createdAt,value
2019-02-17T00:01:45.216Z,33.23
2019-02-17T00:04:14.377Z,36.07
2019-02-17T00:06:43.093Z,31.97
2019-02-17T00:09:13.248Z,31.13
2019-02-17T00:11:42.013Z,35.27
2019-02-17T00:14:10.953Z,32.97
2019-02-17T00:16:39.873Z,37.63
2019-02-17T00:19:08.847Z,31.57
2019-02-17T00:21:37.690Z,30.07
2019-02-17T00:24:06.759Z,32.10
2019-02-17T00:26:35.680Z,34.20
2019-02-17T00:29:04.805Z,30.50
2019-02-17T00:31:33.744Z,36.03
2019-02-17T00:34:02.612Z,33.27
2019-02-17T00:36:31.502Z,31.93
2019-02-17T00:39:00.233Z,32.40
2019-02-17T00:41:29.562Z,34.93
2019-02-17T00:43:58.446Z,30.83
2019-02-17T00:46:27.590Z,35.03
2019-02-17T00:48:56.601Z,33.70
2019-02-17T00:51:25.709Z,27.20
2019-02-17T00:53:55.722Z,33.17
2019-02-17T00:56:24.603Z,29.93
2019-02-17T00:58:53.446Z,33.60
2019-02-17T01:01:22.251Z,31.93
2019-02-17T01:03:51.080Z,37.73
2019-02-17T01:06:19.920Z,30.17
2019-02-17T01:08:48.858Z,38.33
2019-02-17T01:11:17.822Z,29.67
2019-02-17T01:13:46.713Z,24.60
2019-02-17T01:16:15.885Z,31.03
2019-02-17T01:18:44.513Z,28.40
2019-02-17T01:21:13.294Z,35.50
2019-02-17T01:23:42.056Z,33.70
2019-02-17T01:26:11.154Z,31.13
2019-02-17T01:28:40.166Z,41.73
2019-02-17T01:31:09.272Z,26.17
2019-02-17T01:33:38.869Z,31.00
2019-02-17T01:36:07.790Z,29.13
2019-02-17T01:41:31.485Z,28.50
2019-02-17T01:44:19.254Z,34.07
2019-02-17T01:47:07.051Z,27.90
2019-02-17T01:49:54.845Z,32.93
2019-02-17T01:52:42.626Z,33.20
2019-02-17T01:55:30.412Z,27.93
2019-02-17T01:58:18.228Z,26.30
2019-02-17T02:01:06.177Z,25.97
2019-02-17T02:03:53.956Z,42.20
2019-02-17T02:06:41.784Z,32.17
2019-02-17T02:09:29.565Z,36.40
2019-02-17T02:12:17.361Z,31.40
2019-02-17T02:15:24.459Z,37.03
2019-02-17T02:18:12.347Z,33.37
2019-02-17T02:21:00.141Z,31.40
2019-02-17T02:23:47.991Z,33.30
2019-02-17T02:26:35.758Z,30.47
2019-02-17T02:29:23.535Z,30.40
2019-02-17T02:32:11.334Z,35.83
2019-02-17T02:34:51.884Z,39.20
2019-02-17T02:37:32.734Z,32.87
2019-02-17T02:40:13.647Z,30.83
2019-02-17T02:42:54.397Z,34.23
2019-02-17T02:45:35.493Z,38.10
2019-02-17T02:48:16.476Z,34.27
2019-02-17T02:50:57.142Z,28.80
2019-02-17T02:53:37.845Z,38.93
2019-02-17T02:56:18.863Z,26.97
2019-02-17T02:58:59.724Z,26.33
2019-02-17T03:01:40.820Z,31.20
2019-02-17T03:04:09.276Z,35.73
2019-02-17T03:06:42.167Z,31.87
2019-02-17T03:09:10.622Z,34.13
2019-02-17T03:11:39.056Z,32.77
2019-02-17T03:14:07.519Z,31.20
2019-02-17T03:16:35.954Z,33.50
2019-02-17T03:19:04.489Z,31.70
2019-02-17T03:21:33.053Z,33.43
2019-02-17T03:24:01.515Z,36.93
2019-02-17T03:26:29.954Z,27.57
2019-02-17T03:28:58.392Z,31.70
2019-02-17T03:31:26.834Z,30.37
2019-02-17T03:33:55.276Z,32.47
2019-02-17T03:36:23.720Z,29.83
2019-02-17T03:38:52.166Z,33.43
2019-02-17T03:41:20.611Z,34.43
2019-02-17T03:43:49.082Z,31.53
2019-02-17T03:46:17.529Z,33.70
2019-02-17T03:48:45.984Z,26.37
2019-02-17T03:51:14.420Z,32.90
2019-02-17T03:53:42.912Z,32.37
2019-02-17T03:56:11.360Z,35.63
2019-02-17T03:58:39.882Z,33.47
2019-02-17T04:01:08.377Z,38.70
2019-02-17T04:03:36.830Z,39.53
2019-02-17T04:06:05.350Z,36.63
2019-02-17T04:08:33.786Z,36.03
2019-02-17T04:11:02.244Z,36.73
2019-02-17T04:13:30.735Z,34.93
2019-02-17T04:15:59.179Z,31.93
2019-02-17T04:18:27.601Z,34.20
2019-02-17T04:20:56.088Z,32.17
2019-02-17T04:23:31.431Z,33.10
2019-02-17T04:25:55.555Z,29.63
2019-02-17T04:28:24.077Z,34.60
2019-02-17T04:30:52.527Z,32.07
2019-02-17T04:33:20.959Z,29.97
2019-02-17T04:35:49.423Z,32.30
2019-02-17T04:38:17.847Z,29.27
2019-02-17T04:40:46.290Z,30.40
2019-02-17T04:43:14.720Z,32.90
2019-02-17T04:45:43.186Z,30.17
2019-02-17T04:48:11.629Z,30.55
2019-02-17T04:50:40.245Z,32.90
2019-02-17T04:53:08.672Z,31.70
2019-02-17T04:55:37.119Z,32.27
2019-02-17T04:58:05.554Z,33.70
2019-02-17T05:00:40.173Z,34.27
2019-02-17T05:03:04.151Z,37.33
2019-02-17T05:05:32.607Z,31.30
2019-02-17T05:08:01.052Z,54.30
2019-02-17T05:10:29.499Z,39.37
2019-02-17T05:12:57.919Z,34.73
2019-02-17T05:15:26.352Z,28.23
2019-02-17T05:17:54.811Z,33.30
2019-02-17T05:20:23.244Z,40.00
2019-02-17T05:22:51.707Z,36.73
2019-02-17T05:25:20.150Z,28.43
2019-02-17T05:27:48.594Z,34.33
2019-02-17T05:30:17.031Z,27.00
2019-02-17T05:32:45.475Z,35.48
2019-02-17T05:35:13.921Z,43.13
2019-02-17T05:37:42.385Z,35.60
2019-02-17T05:40:10.834Z,32.98
2019-02-17T05:42:39.277Z,32.17
2019-02-17T05:45:08.038Z,28.70
2019-02-17T05:47:36.555Z,35.73
2019-02-17T05:50:06.237Z,32.73
2019-02-17T05:52:34.687Z,35.13
2019-02-17T05:55:03.128Z,28.30
2019-02-17T05:57:31.594Z,31.07
2019-02-17T06:00:00.078Z,30.07
2019-02-17T06:02:28.887Z,33.10
2019-02-17T06:04:57.332Z,28.10
2019-02-17T06:07:25.951Z,32.00
2019-02-17T06:09:54.398Z,36.28
2019-02-17T06:12:22.845Z,40.03
2019-02-17T06:14:51.299Z,33.70
2019-02-17T06:17:19.814Z,30.77
2019-02-17T06:19:48.257Z,32.73
2019-02-17T06:22:16.700Z,31.90
2019-02-17T06:24:45.133Z,32.70
2019-02-17T06:27:13.762Z,32.08
2019-02-17T06:29:42.207Z,30.30
2019-02-17T06:32:10.665Z,31.13
2019-02-17T06:34:39.108Z,29.10
2019-02-17T06:37:07.543Z,32.50
2019-02-17T06:39:36.069Z,31.15
2019-02-17T06:42:04.510Z,31.10
2019-02-17T06:44:32.949Z,35.40
2019-02-17T06:47:02.152Z,30.00
2019-02-17T06:49:30.569Z,29.20
2019-02-17T06:51:59.003Z,35.83
2019-02-17T06:54:27.449Z,43.13
2019-02-17T06:56:57.535Z,45.63
2019-02-17T06:59:25.980Z,41.67
2019-02-17T07:01:54.418Z,47.33
2019-02-17T07:04:24.747Z,44.07
2019-02-17T07:06:54.821Z,45.63
2019-02-17T07:09:23.265Z,51.97
2019-02-17T07:11:51.698Z,48.70
2019-02-17T07:14:20.379Z,48.40
2019-02-17T07:16:48.826Z,38.97
2019-02-17T07:19:17.499Z,48.17
2019-02-17T07:21:45.938Z,37.60
2019-02-17T07:24:14.372Z,41.00
2019-02-17T07:26:42.799Z,35.03
2019-02-17T07:29:11.246Z,41.27
2019-02-17T07:31:39.675Z,38.37
2019-02-17T07:34:08.115Z,37.40
2019-02-17T07:36:36.578Z,37.80
2019-02-17T07:39:06.016Z,42.00
2019-02-17T07:41:34.450Z,50.17
2019-02-17T07:44:02.968Z,48.40
2019-02-17T07:46:31.390Z,41.27
2019-02-17T07:48:59.940Z,39.53
2019-02-17T07:51:28.376Z,39.43
2019-02-17T07:53:56.896Z,36.17
2019-02-17T07:56:25.401Z,36.57
2019-02-17T07:58:53.849Z,33.10
2019-02-17T08:01:22.287Z,38.60
2019-02-17T08:03:50.779Z,38.80
2019-02-17T08:06:19.229Z,31.70
2019-02-17T08:08:47.659Z,41.37
2019-02-17T08:11:16.098Z,42.27
2019-02-17T08:13:44.550Z,33.63
2019-02-17T08:16:12.990Z,39.20
2019-02-17T08:18:41.418Z,42.13
2019-02-17T08:21:09.864Z,37.60
2019-02-17T08:23:38.323Z,37.37
2019-02-17T08:26:06.760Z,36.17
2019-02-17T08:28:35.174Z,40.97
2019-02-17T08:31:03.642Z,49.17
2019-02-17T08:33:32.065Z,41.97
2019-02-17T08:36:00.507Z,47.70
2019-02-17T08:38:28.946Z,49.40
2019-02-17T08:40:57.376Z,55.50
2019-02-17T08:43:25.843Z,48.30
2019-02-17T08:45:54.346Z,52.60
2019-02-17T08:48:22.790Z,49.30
2019-02-17T08:50:51.230Z,49.20
2019-02-17T08:53:19.654Z,43.70
2019-02-17T08:55:48.225Z,44.77
2019-02-17T08:58:16.720Z,41.33
2019-02-17T09:00:45.201Z,45.13
2019-02-17T09:03:13.627Z,42.60
2019-02-17T09:05:44.441Z,41.03
2019-02-17T09:08:12.275Z,36.80
2019-02-17T09:10:40.720Z,39.23
2019-02-17T09:13:09.153Z,39.97
2019-02-17T09:15:40.361Z,46.70
2019-02-17T09:18:08.820Z,39.87
2019-02-17T09:20:37.244Z,40.43
2019-02-17T09:23:05.670Z,41.20
2019-02-17T09:25:34.100Z,46.87
2019-02-17T09:28:02.542Z,49.97
2019-02-17T09:30:30.958Z,40.93
2019-02-17T09:32:59.415Z,48.10
2019-02-17T09:35:27.842Z,48.43
2019-02-17T09:37:56.278Z,47.60
2019-02-17T09:40:24.711Z,46.37
2019-02-17T09:42:53.143Z,45.80
2019-02-17T09:45:21.581Z,55.57
2019-02-17T09:47:50.027Z,46.90
2019-02-17T09:50:18.467Z,43.20
2019-02-17T09:52:47.028Z,37.67
2019-02-17T09:55:15.484Z,38.30
2019-02-17T09:57:43.926Z,36.83
2019-02-17T10:00:14.650Z,32.23
2019-02-17T10:02:43.258Z,35.47
2019-02-17T10:05:12.613Z,36.37
2019-02-17T10:07:41.238Z,34.50
2019-02-17T10:10:14.505Z,31.27
2019-02-17T10:12:43.000Z,36.83
2019-02-17T10:15:12.997Z,36.07
2019-02-17T10:17:41.430Z,38.40
2019-02-17T10:20:13.986Z,37.97
2019-02-17T10:22:42.439Z,38.47
2019-02-17T10:25:11.033Z,38.73
2019-02-17T10:27:39.447Z,41.70
2019-02-17T10:30:16.546Z,43.07
2019-02-17T10:32:44.984Z,35.13
2019-02-17T10:35:13.496Z,34.77
2019-02-17T10:37:41.902Z,40.70
2019-02-17T10:40:15.498Z,41.90
2019-02-17T10:42:43.921Z,38.40
2019-02-17T10:45:12.705Z,44.27
2019-02-17T10:47:41.190Z,41.23
2019-02-17T10:50:11.498Z,43.83
2019-02-17T10:52:39.986Z,40.43
2019-02-17T10:55:10.506Z,39.83
2019-02-17T10:57:38.919Z,45.67
2019-02-17T11:00:13.651Z,44.03
2019-02-17T11:02:47.209Z,43.43
2019-02-17T11:05:12.237Z,44.80
2019-02-17T11:07:40.682Z,48.60
2019-02-17T11:10:10.980Z,43.67
2019-02-17T11:12:39.476Z,44.33
2019-02-17T11:15:16.456Z,41.83
2019-02-17T11:17:44.880Z,40.80
2019-02-17T11:20:13.323Z,42.80
2019-02-17T11:22:41.750Z,41.43
2019-02-17T11:25:10.331Z,40.10
2019-02-17T11:27:39.594Z,48.17
2019-02-17T11:30:11.119Z,39.90
2019-02-17T11:32:39.760Z,39.50
2019-02-17T11:35:08.343Z,39.43
2019-02-17T11:37:36.771Z,40.03
2019-02-17T11:40:08.154Z,53.20
2019-02-17T11:42:36.594Z,44.10
2019-02-17T11:45:08.548Z,41.33
2019-02-17T11:47:37.047Z,41.23
2019-02-17T11:50:07.422Z,49.97
2019-02-17T11:52:35.876Z,38.53
2019-02-17T11:55:12.438Z,49.43
2019-02-17T11:57:40.980Z,37.93
2019-02-17T12:00:22.799Z,38.17
2019-02-17T12:02:51.249Z,48.60
2019-02-17T12:05:19.704Z,41.37
2019-02-17T12:07:48.269Z,44.40
2019-02-17T12:10:16.700Z,47.43
2019-02-17T12:12:45.159Z,42.63
2019-02-17T12:15:14.324Z,43.00
2019-02-17T12:17:42.762Z,41.10
2019-02-17T12:20:33.136Z,43.07
2019-02-17T12:23:08.951Z,42.27
2019-02-17T12:25:55.512Z,46.57
2019-02-17T12:28:31.640Z,44.73
2019-02-17T12:31:00.071Z,40.63
2019-02-17T12:33:28.522Z,38.73
2019-02-17T12:35:57.210Z,36.07
2019-02-17T12:38:25.652Z,39.50
2019-02-17T12:40:54.087Z,38.30
2019-02-17T12:43:22.530Z,39.83
2019-02-17T12:45:50.978Z,39.60
2019-02-17T12:48:19.495Z,38.13
2019-02-17T12:50:47.922Z,46.07
2019-02-17T12:53:16.377Z,41.93
2019-02-17T12:55:44.814Z,41.23
2019-02-17T12:58:13.256Z,40.10
2019-02-17T13:00:41.731Z,38.20
2019-02-17T13:03:10.201Z,36.87
2019-02-17T13:05:38.704Z,43.40
2019-02-17T13:08:07.179Z,43.47
2019-02-17T13:10:35.611Z,44.50
2019-02-17T13:13:04.808Z,46.87
2019-02-17T13:15:40.813Z,40.53
2019-02-17T13:18:09.758Z,41.13
2019-02-17T13:20:38.194Z,40.10
2019-02-17T13:23:06.641Z,40.70
2019-02-17T13:25:35.150Z,45.70
2019-02-17T13:28:03.648Z,42.00
2019-02-17T13:30:32.081Z,48.40
2019-02-17T13:33:00.559Z,47.43
2019-02-17T13:35:29.091Z,42.30
2019-02-17T13:37:57.541Z,45.70
2019-02-17T13:40:26.044Z,42.20
2019-02-17T13:42:54.492Z,35.77
2019-02-17T13:45:22.943Z,39.93
2019-02-17T13:47:51.382Z,41.00
2019-02-17T13:50:19.845Z,41.10
2019-02-17T13:52:48.273Z,43.03
2019-02-17T13:55:16.726Z,42.97
2019-02-17T13:57:45.183Z,39.50
2019-02-17T14:00:20.592Z,46.90
2019-02-17T14:02:49.043Z,43.37
2019-02-17T14:05:17.494Z,40.70
2019-02-17T14:07:46.088Z,49.37
2019-02-17T14:10:14.888Z,46.63
2019-02-17T14:12:43.517Z,47.60
2019-02-17T14:15:19.279Z,42.40
2019-02-17T14:17:47.701Z,45.00
2019-02-17T14:20:16.253Z,44.13
2019-02-17T14:22:44.678Z,41.10
2019-02-17T14:25:13.299Z,44.63
2019-02-17T14:27:41.848Z,41.87
2019-02-17T14:30:15.939Z,48.90
2019-02-17T14:32:44.381Z,46.10
2019-02-17T14:35:12.882Z,43.60
2019-02-17T14:37:41.312Z,47.70
2019-02-17T14:40:13.757Z,46.03
2019-02-17T14:42:42.228Z,45.67
2019-02-17T14:45:12.879Z,47.47
2019-02-17T14:47:41.335Z,50.37
2019-02-17T14:50:10.305Z,49.73
2019-02-17T14:52:38.777Z,46.80
2019-02-17T14:55:09.511Z,45.30
2019-02-17T14:57:37.973Z,39.50
2019-02-17T15:00:17.142Z,49.03
2019-02-17T15:02:45.585Z,44.47
2019-02-17T15:05:14.107Z,50.27
2019-02-17T15:07:42.561Z,53.83
2019-02-17T15:10:12.335Z,47.67
2019-02-17T15:12:40.800Z,43.90
2019-02-17T15:15:11.540Z,43.87
2019-02-17T15:17:39.979Z,44.87
2019-02-17T15:20:17.701Z,45.80
2019-02-17T15:22:46.134Z,46.83
2019-02-17T15:25:14.585Z,52.03
2019-02-17T15:27:43.024Z,53.63
2019-02-17T15:30:13.606Z,49.07
2019-02-17T15:32:42.221Z,57.17
2019-02-17T15:35:10.706Z,52.03
2019-02-17T15:37:39.150Z,51.43
2019-02-17T15:40:10.532Z,48.20
2019-02-17T15:42:39.915Z,45.70
2019-02-17T15:45:10.694Z,47.13
2019-02-17T15:47:39.140Z,45.30
2019-02-17T15:50:09.611Z,48.20
2019-02-17T15:52:38.132Z,47.77
2019-02-17T15:55:09.309Z,46.70
2019-02-17T15:57:37.816Z,45.93
2019-02-17T16:00:11.946Z,56.03
2019-02-17T16:02:40.388Z,49.73
2019-02-17T16:05:09.661Z,47.63
2019-02-17T16:07:38.138Z,53.17
2019-02-17T16:10:09.427Z,55.17
2019-02-17T16:12:37.925Z,50.73
2019-02-17T16:15:12.368Z,53.63
2019-02-17T16:17:40.910Z,44.53
2019-02-17T16:20:11.849Z,44.67
2019-02-17T16:22:43.198Z,45.67
2019-02-17T16:25:11.814Z,52.10
2019-02-17T16:27:40.341Z,46.90
2019-02-17T16:30:16.368Z,44.43
2019-02-17T16:32:44.804Z,44.57
2019-02-17T16:35:13.375Z,42.63
2019-02-17T16:37:41.812Z,44.03
2019-02-17T16:40:14.920Z,60.30
2019-02-17T16:42:43.385Z,73.57
2019-02-17T16:45:13.272Z,97.50
2019-02-17T16:47:41.863Z,67.90
2019-02-17T16:50:15.942Z,61.40
2019-02-17T16:52:44.374Z,68.50
2019-02-17T16:55:13.176Z,51.50
2019-02-17T16:57:41.609Z,53.20
2019-02-17T17:00:14.459Z,63.17
2019-02-17T17:02:42.878Z,49.97
2019-02-17T17:05:11.498Z,53.93
2019-02-17T17:07:39.922Z,55.77
2019-02-17T17:10:08.601Z,71.47
2019-02-17T17:12:37.069Z,68.20
2019-02-17T17:15:06.969Z,65.40
2019-02-17T17:17:35.402Z,48.40
2019-02-17T17:20:05.984Z,39.73
2019-02-17T17:22:34.419Z,49.73
2019-02-17T17:25:02.855Z,50.33
2019-02-17T17:27:31.278Z,41.10
2019-02-17T17:29:59.720Z,47.90
2019-02-17T17:32:28.137Z,48.97
2019-02-17T17:34:58.832Z,48.93
2019-02-17T17:37:26.747Z,52.13
2019-02-17T17:39:55.184Z,60.47
2019-02-17T17:42:23.627Z,40.33
2019-02-17T17:44:52.073Z,41.83
2019-02-17T17:47:20.492Z,41.50
2019-02-17T17:49:48.925Z,40.13
2019-02-17T17:52:17.352Z,45.97
2019-02-17T17:54:46.042Z,43.20
2019-02-17T17:57:14.470Z,38.60
2019-02-17T17:59:43.894Z,39.70
2019-02-17T18:02:12.335Z,35.47
2019-02-17T18:04:40.759Z,37.40
2019-02-17T18:07:09.274Z,44.60
2019-02-17T18:09:37.704Z,48.37
2019-02-17T18:12:06.150Z,43.60
2019-02-17T18:14:34.568Z,41.27
2019-02-17T18:17:03.031Z,47.87
2019-02-17T18:19:31.454Z,54.43
2019-02-17T18:21:59.911Z,62.30
2019-02-17T18:24:28.393Z,66.50
2019-02-17T18:26:56.827Z,56.30
2019-02-17T18:29:25.254Z,59.03
2019-02-17T18:31:53.685Z,52.50
2019-02-17T18:34:22.110Z,46.70
2019-02-17T18:36:50.547Z,41.30
2019-02-17T18:39:18.969Z,46.63
2019-02-17T18:41:47.422Z,46.90
2019-02-17T18:44:15.876Z,38.60
2019-02-17T18:46:45.340Z,43.43
2019-02-17T18:49:13.830Z,43.50
2019-02-17T18:51:42.272Z,40.13
2019-02-17T18:54:10.691Z,46.60
2019-02-17T18:56:39.128Z,46.60
2019-02-17T18:59:07.551Z,55.77
2019-02-17T19:01:35.978Z,45.20
2019-02-17T19:04:04.483Z,48.03
2019-02-17T19:06:32.977Z,46.87
2019-02-17T19:09:01.435Z,44.97
2019-02-17T19:11:29.882Z,48.93
2019-02-17T19:13:58.310Z,42.93
2019-02-17T19:16:26.746Z,50.73
2019-02-17T19:18:55.182Z,48.63
2019-02-17T19:21:23.675Z,49.73
2019-02-17T19:23:52.111Z,47.70
2019-02-17T19:26:20.542Z,52.03
2019-02-17T19:28:48.983Z,48.97
2019-02-17T19:31:17.422Z,53.07
2019-02-17T19:33:46.136Z,65.23
2019-02-17T19:36:14.559Z,48.13
2019-02-17T19:38:43.049Z,49.63
2019-02-17T19:41:11.478Z,45.70
2019-02-17T19:43:40.922Z,50.37
2019-02-17T19:46:09.369Z,56.10
2019-02-17T19:48:37.871Z,74.87
2019-02-17T19:51:06.328Z,61.20
2019-02-17T19:53:34.762Z,60.67
2019-02-17T19:56:03.197Z,54.57
2019-02-17T19:58:31.702Z,62.80
2019-02-17T20:01:00.170Z,62.43
2019-02-17T20:03:30.351Z,59.10
2019-02-17T20:06:00.424Z,60.27
2019-02-17T20:08:28.889Z,59.90
2019-02-17T20:10:58.278Z,69.63
2019-02-17T20:13:26.728Z,64.67
2019-02-17T20:15:55.158Z,64.03
2019-02-17T20:18:23.603Z,62.37
2019-02-17T20:20:52.094Z,67.73
2019-02-17T20:23:20.580Z,66.27
2019-02-17T20:25:49.062Z,60.67
2019-02-17T20:28:17.489Z,73.37
2019-02-17T20:30:45.953Z,54.60
2019-02-17T20:33:14.377Z,58.33
2019-02-17T20:35:42.824Z,59.60
2019-02-17T20:38:11.253Z,55.63
2019-02-17T20:40:39.715Z,52.47
2019-02-17T20:43:08.144Z,52.70
2019-02-17T20:45:36.576Z,45.00
2019-02-17T20:48:05.010Z,48.57
2019-02-17T20:50:33.472Z,52.87
2019-02-17T20:53:01.890Z,45.70
2019-02-17T20:55:30.368Z,54.20
2019-02-17T20:57:58.795Z,53.63
2019-02-17T21:00:28.616Z,49.30
2019-02-17T21:02:57.986Z,52.00
2019-02-17T21:05:26.433Z,46.40
2019-02-17T21:07:54.894Z,49.77
2019-02-17T21:10:23.330Z,46.93
2019-02-17T21:12:51.773Z,47.33
2019-02-17T21:15:21.747Z,47.20
2019-02-17T21:17:50.171Z,48.63
2019-02-17T21:20:19.466Z,54.57
2019-02-17T21:22:47.911Z,46.73
2019-02-17T21:25:16.350Z,48.40
2019-02-17T21:27:44.780Z,49.40
2019-02-17T21:30:17.588Z,48.80
2019-02-17T21:32:46.667Z,51.67
2019-02-17T21:35:18.114Z,53.23
2019-02-17T21:37:46.536Z,49.70
2019-02-17T21:40:15.062Z,47.40
2019-02-17T21:42:43.481Z,50.80
2019-02-17T21:45:13.147Z,45.57
2019-02-17T21:47:41.733Z,50.10
2019-02-17T21:50:13.994Z,54.80
2019-02-17T21:52:42.606Z,51.90
2019-02-17T21:55:12.138Z,48.87
2019-02-17T21:57:40.615Z,48.20
2019-02-17T22:00:19.260Z,46.20
2019-02-17T22:02:47.717Z,43.73
2019-02-17T22:05:16.147Z,44.57
2019-02-17T22:07:44.755Z,44.90
2019-02-17T22:10:16.037Z,43.57
2019-02-17T22:12:44.482Z,50.80
2019-02-17T22:15:17.551Z,51.63
2019-02-17T22:17:45.974Z,49.53
2019-02-17T22:20:14.418Z,54.80
2019-02-17T22:22:42.901Z,38.10
2019-02-17T22:25:13.357Z,50.43
2019-02-17T22:27:41.792Z,46.53
2019-02-17T22:30:12.435Z,50.93
2019-02-17T22:32:40.876Z,48.93
2019-02-17T22:35:09.474Z,45.93
2019-02-17T22:37:37.928Z,46.10
2019-02-17T22:40:09.374Z,51.73
2019-02-17T22:42:37.812Z,45.53
2019-02-17T22:45:08.885Z,41.57
2019-02-17T22:47:37.326Z,51.23
2019-02-17T22:50:08.864Z,52.93
2019-02-17T22:52:37.371Z,51.60
2019-02-17T22:55:09.113Z,50.30
2019-02-17T22:57:37.564Z,51.37
2019-02-17T23:00:17.869Z,50.10
2019-02-17T23:02:46.306Z,49.07
2019-02-17T23:05:15.120Z,46.30
2019-02-17T23:07:43.571Z,45.17
2019-02-17T23:10:12.582Z,50.93
2019-02-17T23:12:41.055Z,52.43
2019-02-17T23:15:09.567Z,53.13
2019-02-17T23:17:38.094Z,50.77
2019-02-17T23:20:07.994Z,49.70
2019-02-17T23:22:36.590Z,46.00
2019-02-17T23:25:08.214Z,46.10
2019-02-17T23:27:36.651Z,49.60
2019-02-17T23:30:07.743Z,46.33
2019-02-17T23:32:36.165Z,43.33
2019-02-17T23:35:05.468Z,50.60
2019-02-17T23:37:33.919Z,47.83
2019-02-17T23:40:02.385Z,45.00
2019-02-17T23:42:30.818Z,47.53
2019-02-17T23:44:59.273Z,41.67
2019-02-17T23:47:27.891Z,52.57
2019-02-17T23:49:56.348Z,43.83
2019-02-17T23:52:24.771Z,45.47
2019-02-17T23:54:53.279Z,45.93
2019-02-17T23:57:21.711Z,47.00
2019-02-17T23:59:50.170Z,43.30
